createdAt,value
2018-01-29T00:00:33.318Z,1014.73
2018-01-29T00:01:33.333Z,1014.71
2018-01-29T00:02:33.346Z,1014.71
2018-01-29T00:03:33.375Z,1014.78
2018-01-29T00:04:33.388Z,1014.68
2018-01-29T00:05:33.402Z,1014.73
2018-01-29T00:06:33.417Z,1014.76
2018-01-29T00:07:33.422Z,1014.7
2018-01-29T00:08:33.498Z,1014.73
2018-01-29T00:09:33.451Z,1014.73
2018-01-29T00:10:33.466Z,1014.73
2018-01-29T00:11:33.493Z,1014.72
2018-01-29T00:12:33.496Z,1014.71
2018-01-29T00:13:33.521Z,1014.72
2018-01-29T00:14:33.528Z,1014.69
2018-01-29T00:15:33.553Z,1014.72
2018-01-29T00:16:33.555Z,1014.77
2018-01-29T00:17:33.581Z,1014.76
2018-01-29T00:18:33.737Z,1014.74
2018-01-29T00:19:33.611Z,1014.73
2018-01-29T00:20:33.625Z,1014.8
2018-01-29T00:21:33.640Z,1014.77
2018-01-29T00:22:33.646Z,1014.8
2018-01-29T00:23:33.670Z,1014.78
2018-01-29T00:24:33.685Z,1014.79
2018-01-29T00:25:33.691Z,1014.7
2018-01-29T00:26:33.718Z,1014.7
2018-01-29T00:27:33.720Z,1014.79
2018-01-29T00:28:33.735Z,1014.81
2018-01-29T00:29:33.752Z,1014.79
2018-01-29T00:30:33.776Z,1014.77
2018-01-29T00:31:33.780Z,1014.84
2018-01-29T00:32:33.805Z,1014.81
2018-01-29T00:33:33.821Z,1014.79
2018-01-29T00:34:33.826Z,1014.86
2018-01-29T00:35:33.840Z,1014.86
2018-01-29T00:36:33.881Z,1014.79
2018-01-29T00:37:33.880Z,1014.86
2018-01-29T00:38:33.895Z,1014.84
2018-01-29T00:39:33.913Z,1014.85
2018-01-29T00:40:33.915Z,1014.76
2018-01-29T00:41:33.940Z,1014.83
2018-01-29T00:42:33.955Z,1014.7
2018-01-29T00:43:33.962Z,1014.73
2018-01-29T00:44:33.974Z,1014.68
2018-01-29T00:45:33.988Z,1014.75
2018-01-29T00:46:34.014Z,1014.67
2018-01-29T00:47:34.030Z,1014.74
2018-01-29T00:48:34.045Z,1014.75
2018-01-29T00:49:34.048Z,1014.73
2018-01-29T00:50:34.064Z,1014.72
2018-01-29T00:51:34.088Z,1014.66
2018-01-29T00:52:34.104Z,1014.7
2018-01-29T00:53:34.108Z,1014.65
2018-01-29T00:54:34.123Z,1014.77
2018-01-29T00:55:34.149Z,1014.69
2018-01-29T00:56:34.155Z,1014.68
2018-01-29T00:57:34.178Z,1014.72
2018-01-29T00:58:34.184Z,1014.82
2018-01-29T00:59:34.209Z,1014.76
2018-01-29T01:00:34.215Z,1014.78
2018-01-29T01:01:34.228Z,1014.71
2018-01-29T01:02:34.256Z,1014.75
2018-01-29T01:03:34.269Z,1014.69
2018-01-29T01:04:34.282Z,1014.7
2018-01-29T01:05:34.289Z,1014.73
2018-01-29T01:06:34.303Z,1014.72
2018-01-29T01:07:34.331Z,1014.76
2018-01-29T01:08:34.332Z,1014.75
2018-01-29T01:09:34.357Z,1014.71
2018-01-29T01:10:34.363Z,1014.72
2018-01-29T01:11:34.387Z,1014.78
2018-01-29T01:12:34.402Z,1014.7
2018-01-29T01:13:34.418Z,1014.74
2018-01-29T01:14:34.428Z,1014.76
2018-01-29T01:15:34.452Z,1014.79
2018-01-29T01:16:34.462Z,1014.8
2018-01-29T01:17:34.467Z,1014.76
2018-01-29T01:18:34.493Z,1014.78
2018-01-29T01:19:34.509Z,1014.76
2018-01-29T01:20:34.521Z,1014.79
2018-01-29T01:21:34.526Z,1014.83
2018-01-29T01:22:34.551Z,1014.78
2018-01-29T01:23:34.558Z,1014.81
2018-01-29T01:24:34.572Z,1014.77
2018-01-29T01:25:34.597Z,1014.83
2018-01-29T01:26:34.600Z,1014.78
2018-01-29T01:27:34.616Z,1014.79
2018-01-29T01:28:34.630Z,1014.72
2018-01-29T01:29:34.658Z,1014.75
2018-01-29T01:30:34.670Z,1014.83
2018-01-29T01:31:34.690Z,1014.77
2018-01-29T01:32:34.690Z,1014.72
2018-01-29T01:33:34.715Z,1014.74
2018-01-29T01:34:34.730Z,1014.78
2018-01-29T01:35:34.747Z,1014.77
2018-01-29T01:36:34.762Z,1014.74
2018-01-29T01:37:34.776Z,1014.7
2018-01-29T01:38:34.789Z,1014.69
2018-01-29T01:39:34.806Z,1014.73
2018-01-29T01:40:34.820Z,1014.73
2018-01-29T01:41:34.824Z,1014.64
2018-01-29T01:42:34.849Z,1014.64
2018-01-29T01:43:34.854Z,1014.66
2018-01-29T01:44:34.872Z,1014.64
2018-01-29T01:45:34.884Z,1014.68
2018-01-29T01:46:34.909Z,1014.62
2018-01-29T01:47:34.925Z,1014.61
2018-01-29T01:48:34.930Z,1014.57
2018-01-29T01:49:34.944Z,1014.52
2018-01-29T01:50:34.960Z,1014.54
2018-01-29T01:51:34.984Z,1014.52
2018-01-29T01:52:35.000Z,1014.51
2018-01-29T01:53:35.007Z,1014.56
2018-01-29T01:54:35.018Z,1014.54
2018-01-29T01:55:35.044Z,1014.5
2018-01-29T01:56:35.058Z,1014.5
2018-01-29T01:57:35.074Z,1014.5
2018-01-29T01:58:35.089Z,1014.47
2018-01-29T01:59:35.094Z,1014.49
2018-01-29T02:00:35.120Z,1014.47
2018-01-29T02:01:35.124Z,1014.5
2018-01-29T02:02:35.148Z,1014.46
2018-01-29T02:03:35.188Z,1014.4
2018-01-29T02:04:35.179Z,1014.52
2018-01-29T02:05:35.194Z,1014.48
2018-01-29T02:06:35.197Z,1014.43
2018-01-29T02:07:35.213Z,1014.45
2018-01-29T02:08:35.231Z,1014.39
2018-01-29T02:09:35.254Z,1014.43
2018-01-29T02:10:35.275Z,1014.43
2018-01-29T02:11:35.273Z,1014.4
2018-01-29T02:12:35.287Z,1014.42
2018-01-29T02:13:35.303Z,1014.42
2018-01-29T02:14:35.330Z,1014.44
2018-01-29T02:15:35.333Z,1014.44
2018-01-29T02:16:35.358Z,1014.37
2018-01-29T02:17:35.365Z,1014.36
2018-01-29T02:18:35.380Z,1014.38
2018-01-29T02:19:35.403Z,1014.39
2018-01-29T02:20:35.407Z,1014.34
2018-01-29T02:21:35.422Z,1014.38
2018-01-29T02:22:35.447Z,1014.42
2018-01-29T02:23:35.452Z,1014.43
2018-01-29T02:24:35.466Z,1014.4
2018-01-29T02:25:35.494Z,1014.38
2018-01-29T02:26:35.509Z,1014.4
2018-01-29T02:27:35.512Z,1014.34
2018-01-29T02:28:35.572Z,1014.32
2018-01-29T02:29:35.602Z,1014.3
2018-01-29T02:30:35.557Z,1014.26
2018-01-29T02:31:35.571Z,1014.26
2018-01-29T02:32:35.586Z,1014.27
2018-01-29T02:33:35.611Z,1014.22
2018-01-29T02:34:35.628Z,1014.26
2018-01-29T02:35:35.641Z,1014.22
2018-01-29T02:36:35.645Z,1014.21
2018-01-29T02:37:35.662Z,1014.18
2018-01-29T02:38:35.687Z,1014.15
2018-01-29T02:39:35.703Z,1014.12
2018-01-29T02:40:35.709Z,1014.15
2018-01-29T02:41:35.721Z,1014.09
2018-01-29T02:42:35.774Z,1014.05
2018-01-29T02:43:35.762Z,1014.09
2018-01-29T02:44:35.775Z,1014.13
2018-01-29T02:45:35.792Z,1014.08
2018-01-29T02:46:35.795Z,1014.06
2018-01-29T02:47:35.810Z,1014.02
2018-01-29T02:48:35.826Z,1014.02
2018-01-29T02:49:35.856Z,1013.99
2018-01-29T02:50:35.854Z,1013.99
2018-01-29T02:51:35.880Z,1013.93
2018-01-29T02:52:35.885Z,1013.88
2018-01-29T02:53:35.901Z,1013.83
2018-01-29T02:54:35.926Z,1013.84
2018-01-29T02:55:35.930Z,1013.78
2018-01-29T02:56:35.948Z,1013.76
2018-01-29T02:57:35.969Z,1013.77
2018-01-29T02:58:35.974Z,1013.79
2018-01-29T02:59:35.992Z,1013.68
2018-01-29T03:00:36.015Z,1013.69
2018-01-29T03:01:36.019Z,1013.64
2018-01-29T03:02:36.081Z,1013.68
2018-01-29T03:03:36.050Z,1013.71
2018-01-29T03:04:36.063Z,1013.59
2018-01-29T03:05:36.080Z,1013.61
2018-01-29T03:06:36.094Z,1013.59
2018-01-29T03:07:36.108Z,1013.63
2018-01-29T03:08:36.140Z,1013.59
2018-01-29T03:09:36.149Z,1013.6
2018-01-29T03:10:36.154Z,1013.58
2018-01-29T03:11:36.169Z,1013.63
2018-01-29T03:12:36.185Z,1013.63
2018-01-29T03:13:36.198Z,1013.65
2018-01-29T03:14:36.214Z,1013.61
2018-01-29T03:15:36.238Z,1013.53
2018-01-29T03:16:36.243Z,1013.61
2018-01-29T03:17:36.268Z,1013.62
2018-01-29T03:18:36.274Z,1013.56
2018-01-29T03:19:36.300Z,1013.63
2018-01-29T03:20:36.303Z,1013.67
2018-01-29T03:21:36.318Z,1013.68
2018-01-29T03:22:36.343Z,1013.63
2018-01-29T03:23:36.347Z,1013.63
2018-01-29T03:24:36.362Z,1013.62
2018-01-29T03:25:36.383Z,1013.59
2018-01-29T03:26:36.404Z,1013.6
2018-01-29T03:27:36.418Z,1013.57
2018-01-29T03:28:36.422Z,1013.65
2018-01-29T03:29:36.437Z,1013.57
2018-01-29T03:30:36.456Z,1013.61
2018-01-29T03:31:36.467Z,1013.57
2018-01-29T03:32:36.494Z,1013.53
2018-01-29T03:33:36.507Z,1013.54
2018-01-29T03:34:36.513Z,1013.58
2018-01-29T03:35:36.527Z,1013.54
2018-01-29T03:36:36.554Z,1013.54
2018-01-29T03:37:36.568Z,1013.53
2018-01-29T03:38:36.573Z,1013.48
2018-01-29T03:39:36.589Z,1013.47
2018-01-29T03:40:36.603Z,1013.47
2018-01-29T03:41:36.619Z,1013.47
2018-01-29T03:42:36.632Z,1013.46
2018-01-29T03:43:36.647Z,1013.45
2018-01-29T03:44:36.673Z,1013.42
2018-01-29T03:45:36.677Z,1013.43
2018-01-29T03:46:36.700Z,1013.32
2018-01-29T03:47:36.707Z,1013.34
2018-01-29T03:48:36.722Z,1013.33
2018-01-29T03:49:36.737Z,1013.27
2018-01-29T03:50:36.752Z,1013.19
2018-01-29T03:51:36.779Z,1013.26
2018-01-29T03:52:36.792Z,1013.23
2018-01-29T03:53:36.807Z,1013.22
2018-01-29T03:54:36.822Z,1013.23
2018-01-29T03:55:36.826Z,1013.25
2018-01-29T03:56:36.843Z,1013.24
2018-01-29T03:57:36.858Z,1013.22
2018-01-29T03:58:36.882Z,1013.21
2018-01-29T03:59:36.897Z,1013.2
2018-01-29T04:00:36.917Z,1013.21
2018-01-29T04:01:36.927Z,1013.15
2018-01-29T04:02:36.930Z,1013.16
2018-01-29T04:03:36.946Z,1013.13
2018-01-29T04:04:36.972Z,1013.11
2018-01-29T04:05:36.977Z,1013.1
2018-01-29T04:06:37.002Z,1013.08
2018-01-29T04:07:37.005Z,1013.05
2018-01-29T04:08:37.021Z,1012.98
2018-01-29T04:09:37.036Z,1013.01
2018-01-29T04:10:37.051Z,1012.92
2018-01-29T04:11:37.066Z,1012.96
2018-01-29T04:12:37.081Z,1012.96
2018-01-29T04:13:37.108Z,1013
2018-01-29T04:14:37.110Z,1012.96
2018-01-29T04:15:37.125Z,1012.87
2018-01-29T04:16:37.151Z,1012.9
2018-01-29T04:17:37.156Z,1012.87
2018-01-29T04:18:37.180Z,1012.8
2018-01-29T04:19:37.199Z,1012.81
2018-01-29T04:20:37.200Z,1012.84
2018-01-29T04:21:37.214Z,1012.81
2018-01-29T04:22:37.230Z,1012.72
2018-01-29T04:23:37.256Z,1012.7
2018-01-29T04:24:37.271Z,1012.73
2018-01-29T04:25:37.277Z,1012.69
2018-01-29T04:26:37.289Z,1012.74
2018-01-29T04:27:37.305Z,1012.76
2018-01-29T04:28:37.332Z,1012.74
2018-01-29T04:29:37.334Z,1012.72
2018-01-29T04:30:37.361Z,1012.75
2018-01-29T04:31:37.376Z,1012.73
2018-01-29T04:32:37.378Z,1012.69
2018-01-29T04:33:37.394Z,1012.66
2018-01-29T04:34:37.408Z,1012.68
2018-01-29T04:35:37.434Z,1012.62
2018-01-29T04:36:37.450Z,1012.63
2018-01-29T04:37:37.468Z,1012.59
2018-01-29T04:38:37.469Z,1012.51
2018-01-29T04:39:37.494Z,1012.52
2018-01-29T04:40:37.499Z,1012.52
2018-01-29T04:41:37.525Z,1012.49
2018-01-29T04:42:37.529Z,1012.39
2018-01-29T04:43:37.543Z,1012.42
2018-01-29T04:44:37.562Z,1012.45
2018-01-29T04:45:37.584Z,1012.4
2018-01-29T04:46:37.591Z,1012.42
2018-01-29T04:47:37.613Z,1012.44
2018-01-29T04:48:37.629Z,1012.48
2018-01-29T04:49:37.643Z,1012.48
2018-01-29T04:50:37.698Z,1012.54
2018-01-29T04:51:37.676Z,1012.49
2018-01-29T04:52:37.689Z,1012.49
2018-01-29T04:53:37.698Z,1012.47
2018-01-29T04:54:37.719Z,1012.53
2018-01-29T04:55:37.724Z,1012.48
2018-01-29T04:56:37.738Z,1012.49
2018-01-29T04:57:37.759Z,1012.42
2018-01-29T04:58:37.779Z,1012.41
2018-01-29T04:59:37.793Z,1012.46
2018-01-29T05:00:37.798Z,1012.42
2018-01-29T05:01:37.812Z,1012.39
2018-01-29T05:02:37.828Z,1012.41
2018-01-29T05:03:37.853Z,1012.44
2018-01-29T05:04:37.858Z,1012.38
2018-01-29T05:05:37.883Z,1012.39
2018-01-29T05:06:37.898Z,1012.36
2018-01-29T05:07:37.905Z,1012.4
2018-01-29T05:08:37.918Z,1012.45
2018-01-29T05:09:37.943Z,1012.41
2018-01-29T05:10:38.000Z,1012.46
2018-01-29T05:11:37.974Z,1012.37
2018-01-29T05:12:37.988Z,1012.44
2018-01-29T05:13:38.004Z,1012.49
2018-01-29T05:14:38.021Z,1012.39
2018-01-29T05:15:38.024Z,1012.41
2018-01-29T05:16:38.037Z,1012.37
2018-01-29T05:17:38.053Z,1012.3
2018-01-29T05:18:38.067Z,1012.37
2018-01-29T05:19:38.082Z,1012.38
2018-01-29T05:20:38.107Z,1012.35
2018-01-29T05:21:38.124Z,1012.44
2018-01-29T05:22:38.126Z,1012.45
2018-01-29T05:23:38.143Z,1012.45
2018-01-29T05:24:38.167Z,1012.49
2018-01-29T05:25:38.233Z,1012.48
2018-01-29T05:26:38.198Z,1012.46
2018-01-29T05:27:38.214Z,1012.48
2018-01-29T05:28:38.227Z,1012.39
2018-01-29T05:29:38.243Z,1012.39
2018-01-29T05:30:38.248Z,1012.35
2018-01-29T05:31:38.274Z,1012.42
2018-01-29T05:32:38.384Z,1012.39
2018-01-29T05:33:38.291Z,1012.41
2018-01-29T05:34:38.306Z,1012.4
2018-01-29T05:35:38.398Z,1012.42
2018-01-29T05:36:38.347Z,1012.39
2018-01-29T05:37:38.365Z,1012.42
2018-01-29T05:38:38.365Z,1012.41
2018-01-29T05:39:38.382Z,1012.43
2018-01-29T05:40:38.408Z,1012.39
2018-01-29T05:41:38.421Z,1012.35
2018-01-29T05:42:38.426Z,1012.4
2018-01-29T05:43:38.443Z,1012.34
2018-01-29T05:44:38.458Z,1012.24
2018-01-29T05:45:38.470Z,1012.32
2018-01-29T05:46:38.496Z,1012.26
2018-01-29T05:47:38.513Z,1012.25
2018-01-29T05:48:38.527Z,1012.2
2018-01-29T05:49:38.533Z,1012.27
2018-01-29T05:50:38.556Z,1012.2
2018-01-29T05:51:38.561Z,1012.17
2018-01-29T05:52:38.574Z,1012.17
2018-01-29T05:53:38.592Z,1012.17
2018-01-29T05:54:38.617Z,1012.15
2018-01-29T05:55:38.622Z,1012.11
2018-01-29T05:56:38.644Z,1012.09
2018-01-29T05:57:38.660Z,1012.07
2018-01-29T05:58:38.676Z,1012.11
2018-01-29T05:59:38.680Z,1011.95
2018-01-29T06:00:38.745Z,1012
2018-01-29T06:01:38.803Z,1012
2018-01-29T06:02:38.735Z,1012.09
2018-01-29T06:03:38.739Z,1011.99
2018-01-29T06:04:38.764Z,1011.92
2018-01-29T06:05:38.830Z,1011.98
2018-01-29T06:06:38.784Z,1011.98
2018-01-29T06:07:38.801Z,1012
2018-01-29T06:08:38.826Z,1011.95
2018-01-29T06:09:38.843Z,1012
2018-01-29T06:10:38.855Z,1012.04
2018-01-29T06:11:38.858Z,1011.92
2018-01-29T06:12:38.887Z,1011.98
2018-01-29T06:13:38.899Z,1012.04
2018-01-29T06:14:38.957Z,1011.99
2018-01-29T06:15:38.934Z,1012.08
2018-01-29T06:16:38.933Z,1012.05
2018-01-29T06:17:38.954Z,1012.09
2018-01-29T06:18:39.044Z,1012.09
2018-01-29T06:19:38.978Z,1012.1
2018-01-29T06:20:39.004Z,1012.06
2018-01-29T06:21:39.020Z,1012.09
2018-01-29T06:22:39.033Z,1012.05
2018-01-29T06:23:39.048Z,1012.13
2018-01-29T06:24:39.063Z,1012.12
2018-01-29T06:25:39.077Z,1012.02
2018-01-29T06:26:39.083Z,1012.04
2018-01-29T06:27:39.107Z,1012.05
2018-01-29T06:28:39.124Z,1012.06
2018-01-29T06:29:39.127Z,1012.04
2018-01-29T06:30:39.152Z,1011.99
2018-01-29T06:31:39.157Z,1012.01
2018-01-29T06:32:39.173Z,1011.98
2018-01-29T06:33:39.197Z,1012.02
2018-01-29T06:34:39.212Z,1012.08
2018-01-29T06:35:39.227Z,1012.02
2018-01-29T06:36:39.242Z,1011.97
2018-01-29T06:37:39.247Z,1011.99
2018-01-29T06:38:39.272Z,1011.95
2018-01-29T06:39:39.277Z,1012
2018-01-29T06:40:39.302Z,1011.96
2018-01-29T06:41:39.319Z,1011.96
2018-01-29T06:42:39.331Z,1011.9
2018-01-29T06:43:39.355Z,1011.89
2018-01-29T06:44:39.362Z,1011.85
2018-01-29T06:45:39.376Z,1011.88
2018-01-29T06:46:39.394Z,1011.88
2018-01-29T06:47:39.406Z,1011.83
2018-01-29T06:48:39.422Z,1011.93
2018-01-29T06:49:39.437Z,1011.88
2018-01-29T06:50:39.453Z,1011.86
2018-01-29T06:51:39.457Z,1011.88
2018-01-29T06:52:39.481Z,1011.91
2018-01-29T06:53:39.496Z,1011.87
2018-01-29T06:54:39.528Z,1011.84
2018-01-29T06:55:39.515Z,1011.88
2018-01-29T06:56:39.532Z,1011.83
2018-01-29T06:57:39.546Z,1011.88
2018-01-29T06:58:39.560Z,1011.88
2018-01-29T06:59:39.590Z,1011.84
2018-01-29T07:00:39.592Z,1011.81
2018-01-29T07:01:39.616Z,1011.82
2018-01-29T07:02:39.629Z,1011.78
2018-01-29T07:03:39.645Z,1011.84
2018-01-29T07:04:39.650Z,1011.87
2018-01-29T07:05:39.664Z,1011.81
2018-01-29T07:06:39.678Z,1011.81
2018-01-29T07:07:39.705Z,1011.88
2018-01-29T07:08:39.720Z,1011.84
2018-01-29T07:09:39.724Z,1011.85
2018-01-29T07:10:39.740Z,1011.82
2018-01-29T07:11:39.765Z,1011.87
2018-01-29T07:12:39.780Z,1011.92
2018-01-29T07:13:39.787Z,1011.9
2018-01-29T07:14:39.810Z,1011.88
2018-01-29T07:15:39.815Z,1011.88
2018-01-29T07:16:39.839Z,1011.92
2018-01-29T07:17:39.843Z,1011.94
2018-01-29T07:18:39.869Z,1011.93
2018-01-29T07:19:39.883Z,1011.97
2018-01-29T07:20:39.899Z,1011.99
2018-01-29T07:21:39.915Z,1011.96
2018-01-29T07:22:39.918Z,1012.03
2018-01-29T07:23:39.933Z,1012
2018-01-29T07:24:39.947Z,1012.03
2018-01-29T07:25:39.973Z,1012
2018-01-29T07:26:40.028Z,1011.99
2018-01-29T07:27:40.009Z,1012.03
2018-01-29T07:28:40.018Z,1012.04
2018-01-29T07:29:40.033Z,1012.01
2018-01-29T07:30:40.044Z,1012
2018-01-29T07:31:40.105Z,1012.04
2018-01-29T07:32:40.067Z,1012
2018-01-29T07:33:40.082Z,1012.03
2018-01-29T07:34:40.108Z,1012
2018-01-29T07:35:40.123Z,1012.04
2018-01-29T07:36:40.187Z,1012
2018-01-29T07:37:40.152Z,1011.97
2018-01-29T07:38:40.155Z,1012.04
2018-01-29T07:39:40.171Z,1012.02
2018-01-29T07:40:40.196Z,1012.04
2018-01-29T07:41:40.203Z,1011.99
2018-01-29T07:42:40.226Z,1012.01
2018-01-29T07:43:40.241Z,1011.96
2018-01-29T07:44:40.246Z,1011.91
2018-01-29T07:45:40.261Z,1011.94
2018-01-29T07:46:40.276Z,1011.97
2018-01-29T07:47:40.291Z,1011.88
2018-01-29T07:48:40.305Z,1011.98
2018-01-29T07:49:40.321Z,1012
2018-01-29T07:50:40.346Z,1012
2018-01-29T07:51:40.361Z,1012.01
2018-01-29T07:52:40.376Z,1012.01
2018-01-29T07:53:40.381Z,1012.02
2018-01-29T07:54:40.395Z,1012.03
2018-01-29T07:55:40.421Z,1012.02
2018-01-29T07:56:40.436Z,1012
2018-01-29T07:57:40.452Z,1012.03
2018-01-29T07:58:40.467Z,1012.03
2018-01-29T07:59:40.483Z,1012.04
2018-01-29T08:00:40.494Z,1012.06
2018-01-29T08:01:40.510Z,1012.03
2018-01-29T08:02:40.524Z,1012.03
2018-01-29T08:03:40.551Z,1012.05
2018-01-29T08:04:40.554Z,1011.98
2018-01-29T08:05:40.559Z,1012
2018-01-29T08:06:40.574Z,1012.04
2018-01-29T08:07:40.600Z,1011.94
2018-01-29T08:08:40.604Z,1012.03
2018-01-29T08:09:40.630Z,1012.11
2018-01-29T08:10:40.646Z,1012.02
2018-01-29T08:11:40.660Z,1012.06
2018-01-29T08:12:40.675Z,1012.07
2018-01-29T08:13:40.690Z,1012
2018-01-29T08:14:40.694Z,1012
2018-01-29T08:15:40.720Z,1012.03
2018-01-29T08:16:40.735Z,1011.99
2018-01-29T08:17:40.750Z,1011.96
2018-01-29T08:18:40.767Z,1011.99
2018-01-29T08:19:40.779Z,1011.96
2018-01-29T08:20:40.794Z,1012.03
2018-01-29T08:21:40.799Z,1011.98
2018-01-29T08:22:40.814Z,1011.97
2018-01-29T08:23:40.839Z,1011.95
2018-01-29T08:24:40.856Z,1011.94
2018-01-29T08:25:40.858Z,1011.96
2018-01-29T08:26:40.884Z,1011.9
2018-01-29T08:27:40.899Z,1011.83
2018-01-29T08:28:40.904Z,1011.81
2018-01-29T08:29:40.919Z,1011.79
2018-01-29T08:30:40.933Z,1011.68
2018-01-29T08:31:40.959Z,1011.74
2018-01-29T08:32:40.974Z,1011.67
2018-01-29T08:33:40.978Z,1011.67
2018-01-29T08:34:41.006Z,1011.67
2018-01-29T08:35:41.044Z,1011.71
2018-01-29T08:36:41.024Z,1011.66
2018-01-29T08:37:41.040Z,1011.68
2018-01-29T08:38:41.054Z,1011.67
2018-01-29T08:39:41.069Z,1011.67
2018-01-29T08:40:41.094Z,1011.71
2018-01-29T08:41:41.109Z,1011.66
2018-01-29T08:42:41.125Z,1011.62
2018-01-29T08:43:41.139Z,1011.72
2018-01-29T08:44:41.153Z,1011.76
2018-01-29T08:45:41.168Z,1011.72
2018-01-29T08:46:41.185Z,1011.77
2018-01-29T08:47:41.202Z,1011.78
2018-01-29T08:48:41.220Z,1011.78
2018-01-29T08:49:41.229Z,1011.8
2018-01-29T08:50:41.234Z,1011.81
2018-01-29T08:51:41.249Z,1011.86
2018-01-29T08:52:41.276Z,1011.86
2018-01-29T08:53:41.278Z,1011.86
2018-01-29T08:54:41.305Z,1011.89
2018-01-29T08:55:41.318Z,1011.8
2018-01-29T08:56:41.324Z,1011.87
2018-01-29T08:57:41.338Z,1011.9
2018-01-29T08:58:41.355Z,1011.9
2018-01-29T08:59:41.380Z,1011.82
2018-01-29T09:00:41.396Z,1011.87
2018-01-29T09:01:41.398Z,1011.84
2018-01-29T09:02:41.423Z,1011.83
2018-01-29T09:03:41.428Z,1011.89
2018-01-29T09:04:41.457Z,1011.77
2018-01-29T09:05:41.458Z,1011.82
2018-01-29T09:06:41.483Z,1011.83
2018-01-29T09:07:41.500Z,1011.8
2018-01-29T09:08:41.504Z,1011.75
2018-01-29T09:09:41.519Z,1011.77
2018-01-29T09:10:41.545Z,1011.74
2018-01-29T09:11:41.549Z,1011.75
2018-01-29T09:12:41.576Z,1011.76
2018-01-29T09:13:41.577Z,1011.76
2018-01-29T09:14:41.603Z,1011.72
2018-01-29T09:15:41.619Z,1011.66
2018-01-29T09:16:41.634Z,1011.71
2018-01-29T09:17:41.638Z,1011.73
2018-01-29T09:18:41.655Z,1011.64
2018-01-29T09:19:41.679Z,1011.59
2018-01-29T09:20:41.696Z,1011.59
2018-01-29T09:21:41.701Z,1011.54
2018-01-29T09:22:41.728Z,1011.53
2018-01-29T09:23:41.730Z,1011.49
2018-01-29T09:24:41.756Z,1011.58
2018-01-29T09:25:41.769Z,1011.56
2018-01-29T09:26:41.774Z,1011.53
2018-01-29T09:27:41.790Z,1011.41
2018-01-29T09:28:41.814Z,1011.48
2018-01-29T09:29:41.820Z,1011.49
2018-01-29T09:30:41.846Z,1011.48
2018-01-29T09:31:41.850Z,1011.51
2018-01-29T09:32:41.875Z,1011.48
2018-01-29T09:33:41.879Z,1011.54
2018-01-29T09:34:41.934Z,1011.46
2018-01-29T09:35:41.921Z,1011.49
2018-01-29T09:36:41.935Z,1011.51
2018-01-29T09:37:41.940Z,1011.47
2018-01-29T09:38:41.966Z,1011.53
2018-01-29T09:39:41.970Z,1011.56
2018-01-29T09:40:41.989Z,1011.57
2018-01-29T09:41:42.001Z,1011.61
2018-01-29T09:42:42.026Z,1011.54
2018-01-29T09:43:42.041Z,1011.56
2018-01-29T09:44:42.046Z,1011.63
2018-01-29T09:45:42.073Z,1011.64
2018-01-29T09:46:42.076Z,1011.64
2018-01-29T09:47:42.104Z,1011.54
2018-01-29T09:48:42.117Z,1011.53
2018-01-29T09:49:42.125Z,1011.44
2018-01-29T09:50:42.137Z,1011.5
2018-01-29T09:51:42.152Z,1011.46
2018-01-29T09:52:42.228Z,1011.44
2018-01-29T09:53:42.195Z,1011.44
2018-01-29T09:54:42.198Z,1011.45
2018-01-29T09:55:42.216Z,1011.42
2018-01-29T09:56:42.240Z,1011.44
2018-01-29T09:57:42.304Z,1011.45
2018-01-29T09:58:42.276Z,1011.42
2018-01-29T09:59:42.286Z,1011.43
2018-01-29T10:00:42.291Z,1011.4
2018-01-29T10:01:42.305Z,1011.36
2018-01-29T10:02:42.370Z,1011.43
2018-01-29T10:03:42.337Z,1011.37
2018-01-29T10:04:42.362Z,1011.4
2018-01-29T10:05:42.366Z,1011.36
2018-01-29T10:06:42.385Z,1011.36
2018-01-29T10:07:42.408Z,1011.41
2018-01-29T10:08:42.427Z,1011.39
2018-01-29T10:09:42.439Z,1011.32
2018-01-29T10:10:42.443Z,1011.33
2018-01-29T10:11:42.471Z,1011.38
2018-01-29T10:12:42.486Z,1011.29
2018-01-29T10:13:42.501Z,1011.36
2018-01-29T10:14:42.505Z,1011.32
2018-01-29T10:15:42.520Z,1011.29
2018-01-29T10:16:42.537Z,1011.23
2018-01-29T10:17:42.561Z,1011.29
2018-01-29T10:18:42.576Z,1011.34
2018-01-29T10:19:42.591Z,1011.21
2018-01-29T10:20:42.596Z,1011.29
2018-01-29T10:21:42.612Z,1011.35
2018-01-29T10:22:42.628Z,1011.32
2018-01-29T10:23:42.643Z,1011.3
2018-01-29T10:24:42.669Z,1011.23
2018-01-29T10:25:42.675Z,1011.17
2018-01-29T10:26:42.689Z,1011.3
2018-01-29T10:27:42.714Z,1011.26
2018-01-29T10:28:42.730Z,1011.28
2018-01-29T10:29:42.746Z,1011.25
2018-01-29T10:30:42.760Z,1011.17
2018-01-29T10:31:42.777Z,1011.12
2018-01-29T10:32:42.792Z,1011.22
2018-01-29T10:33:42.808Z,1011.12
2018-01-29T10:34:42.825Z,1011.18
2018-01-29T10:35:42.827Z,1011.15
2018-01-29T10:36:42.844Z,1011.14
2018-01-29T10:37:42.858Z,1011.18
2018-01-29T10:38:42.888Z,1011.1
2018-01-29T10:39:42.889Z,1011.08
2018-01-29T10:40:42.905Z,1010.97
2018-01-29T10:41:42.930Z,1011.06
2018-01-29T10:42:42.947Z,1010.96
2018-01-29T10:43:43.001Z,1010.91
2018-01-29T10:44:42.978Z,1010.9
2018-01-29T10:45:42.994Z,1010.94
2018-01-29T10:46:43.009Z,1010.86
2018-01-29T10:47:43.025Z,1010.86
2018-01-29T10:48:43.029Z,1010.82
2018-01-29T10:49:43.045Z,1010.79
2018-01-29T10:50:43.063Z,1010.78
2018-01-29T10:51:43.076Z,1010.81
2018-01-29T10:52:43.092Z,1010.85
2018-01-29T10:53:43.268Z,1010.77
2018-01-29T10:54:43.123Z,1010.76
2018-01-29T10:55:43.139Z,1010.78
2018-01-29T10:56:43.164Z,1010.73
2018-01-29T10:57:43.170Z,1010.71
2018-01-29T10:58:43.336Z,1010.79
2018-01-29T10:59:43.200Z,1010.76
2018-01-29T11:00:43.228Z,1010.65
2018-01-29T11:01:43.242Z,1010.59
2018-01-29T11:02:43.257Z,1010.7
2018-01-29T11:03:43.273Z,1010.67
2018-01-29T11:04:43.290Z,1010.49
2018-01-29T11:05:43.294Z,1010.58
2018-01-29T11:06:43.310Z,1010.47
2018-01-29T11:07:43.325Z,1010.52
2018-01-29T11:08:43.341Z,1010.51
2018-01-29T11:09:43.368Z,1010.42
2018-01-29T11:10:43.383Z,1010.4
2018-01-29T11:11:43.403Z,1010.4
2018-01-29T11:12:43.414Z,1010.31
2018-01-29T11:13:43.431Z,1010.33
2018-01-29T11:14:43.445Z,1010.3
2018-01-29T11:15:43.451Z,1010.33
2018-01-29T11:16:43.478Z,1010.34
2018-01-29T11:17:43.494Z,1010.34
2018-01-29T11:18:43.498Z,1010.22
2018-01-29T11:19:43.515Z,1010.33
2018-01-29T11:20:43.545Z,1010.3
2018-01-29T11:21:43.557Z,1010.27
2018-01-29T11:22:43.572Z,1010.29
2018-01-29T11:23:43.588Z,1010.24
2018-01-29T11:24:43.596Z,1010.19
2018-01-29T11:25:43.608Z,1010.2
2018-01-29T11:26:43.635Z,1010.25
2018-01-29T11:27:43.640Z,1010.21
2018-01-29T11:28:43.668Z,1010.29
2018-01-29T11:29:43.684Z,1010.25
2018-01-29T11:30:43.690Z,1010.2
2018-01-29T11:31:43.707Z,1010.16
2018-01-29T11:32:43.730Z,1010.35
2018-01-29T11:33:43.736Z,1010.2
2018-01-29T11:34:43.763Z,1010.28
2018-01-29T11:35:43.769Z,1010.25
2018-01-29T11:36:43.784Z,1010.21
2018-01-29T11:37:43.832Z,1010.26
2018-01-29T11:38:43.815Z,1010.21
2018-01-29T11:39:43.833Z,1010.28
2018-01-29T11:40:43.848Z,1010.17
2018-01-29T11:41:43.865Z,1010.34
2018-01-29T11:42:43.879Z,1010.19
2018-01-29T11:43:43.894Z,1010.15
2018-01-29T11:44:43.921Z,1010.14
2018-01-29T11:45:43.927Z,1010.18
2018-01-29T11:46:43.944Z,1010.15
2018-01-29T11:47:43.969Z,1010.09
2018-01-29T11:48:43.985Z,1010.08
2018-01-29T11:49:43.990Z,1009.98
2018-01-29T11:50:44.006Z,1009.98
2018-01-29T11:51:44.022Z,1009.95
2018-01-29T11:52:44.038Z,1010.01
2018-01-29T11:53:44.054Z,1009.93
2018-01-29T11:54:44.069Z,1009.82
2018-01-29T11:55:44.098Z,1009.87
2018-01-29T11:56:44.102Z,1009.85
2018-01-29T11:57:44.117Z,1009.86
2018-01-29T11:58:44.134Z,1009.66
2018-01-29T11:59:44.160Z,1009.78
2018-01-29T12:00:44.172Z,1009.68
2018-01-29T12:01:44.192Z,1009.69
2018-01-29T12:02:44.208Z,1009.64
2018-01-29T12:03:44.213Z,1009.62
2018-01-29T12:04:44.240Z,1009.64
2018-01-29T12:05:44.255Z,1009.62
2018-01-29T12:06:44.261Z,1009.5
2018-01-29T12:07:44.288Z,1009.55
2018-01-29T12:08:44.304Z,1009.47
2018-01-29T12:09:44.308Z,1009.51